createdAt,value
2022-11-04T00:00:03.340Z,985.07
2022-11-04T00:05:00.101Z,985.12
2022-11-04T00:10:00.144Z,985.28
2022-11-04T00:14:59.875Z,985.30
2022-11-04T00:19:59.950Z,985.26
2022-11-04T00:24:59.750Z,985.17
2022-11-04T00:29:59.685Z,985.25
2022-11-04T00:34:59.590Z,985.20
2022-11-04T00:39:59.680Z,985.21
2022-11-04T00:44:59.471Z,985.17
2022-11-04T00:49:59.574Z,985.26
2022-11-04T00:54:59.420Z,985.08
2022-11-04T01:00:02.359Z,985.15
2022-11-04T01:04:59.237Z,985.22
2022-11-04T01:09:59.221Z,985.21
2022-11-04T01:14:59.051Z,985.16
2022-11-04T01:20:06.785Z,985.15
2022-11-04T01:24:58.955Z,985.05
2022-11-04T01:29:58.925Z,985.12
2022-11-04T01:34:58.899Z,985.23
2022-11-04T01:39:58.872Z,985.14
2022-11-04T01:44:58.707Z,985.07
2022-11-04T01:49:58.666Z,985.02
2022-11-04T01:54:58.675Z,985.03
2022-11-04T02:00:01.634Z,985.13
2022-11-04T02:04:58.425Z,985.15
2022-11-04T02:09:58.565Z,985.18
2022-11-04T02:14:58.337Z,985.10
2022-11-04T02:19:58.691Z,985.07
2022-11-04T02:24:58.194Z,984.98
2022-11-04T02:29:58.202Z,984.84
2022-11-04T02:34:58.105Z,984.84
2022-11-04T02:39:58.065Z,984.79
2022-11-04T02:44:57.941Z,984.87
2022-11-04T02:49:57.935Z,985.04
2022-11-04T02:54:57.816Z,985.06
2022-11-04T03:00:00.921Z,985.09
2022-11-04T03:04:57.760Z,985.21
2022-11-04T03:09:57.630Z,985.33
2022-11-04T03:14:57.619Z,985.29
2022-11-04T03:19:57.575Z,985.32
2022-11-04T03:24:57.504Z,985.38
2022-11-04T03:29:57.410Z,985.48
2022-11-04T03:34:57.354Z,985.54
2022-11-04T03:39:57.232Z,985.67
2022-11-04T03:44:57.265Z,985.70
2022-11-04T03:49:57.103Z,985.76
2022-11-04T03:54:56.950Z,985.84
2022-11-04T03:59:59.990Z,985.82
2022-11-04T04:04:56.860Z,985.77
2022-11-04T04:09:57.256Z,985.78
2022-11-04T04:14:56.800Z,985.73
2022-11-04T04:19:56.659Z,985.68
2022-11-04T04:24:56.603Z,985.75
2022-11-04T04:29:56.735Z,985.84
2022-11-04T04:34:56.436Z,985.84
2022-11-04T04:39:56.404Z,985.92
2022-11-04T04:44:56.315Z,985.92
2022-11-04T04:49:56.400Z,986.10
2022-11-04T04:54:56.292Z,986.10
2022-11-04T04:59:59.323Z,986.17
2022-11-04T05:18:37.655Z,986.31
2022-11-04T05:25:56.595Z,986.40
2022-11-04T05:30:56.585Z,986.52
2022-11-04T05:35:57.529Z,986.44
2022-11-04T05:41:05.529Z,986.59
2022-11-04T05:46:04.133Z,986.71
2022-11-04T05:50:56.536Z,986.81
2022-11-04T05:58:19.435Z,986.88
2022-11-04T06:03:19.277Z,986.77
2022-11-04T06:08:19.213Z,986.81
2022-11-04T06:13:19.189Z,986.76
2022-11-04T06:18:19.123Z,986.75
2022-11-04T06:23:18.996Z,986.75
2022-11-04T06:30:09.313Z,986.67
2022-11-04T06:35:09.193Z,986.57
2022-11-04T06:42:02.726Z,986.61
2022-11-04T06:47:01.405Z,986.77
2022-11-04T06:53:30.290Z,986.94
2022-11-04T07:00:59.127Z,987.30
2022-11-04T07:05:58.821Z,987.45
2022-11-04T07:10:58.640Z,987.66
2022-11-04T07:15:58.531Z,987.52
2022-11-04T07:20:58.481Z,987.59
2022-11-04T07:25:58.616Z,987.52
2022-11-04T07:30:58.455Z,987.33
2022-11-04T07:35:58.696Z,987.44
2022-11-04T07:40:58.300Z,987.62
2022-11-04T07:45:58.209Z,987.79
2022-11-04T07:51:01.801Z,988.01
2022-11-04T07:57:37.166Z,988.14
2022-11-04T08:02:37.285Z,988.38
2022-11-04T08:07:36.973Z,988.35
2022-11-04T08:12:36.870Z,988.15
2022-11-04T08:17:36.663Z,987.98
2022-11-04T08:22:36.634Z,987.91
2022-11-04T08:27:36.609Z,987.86
2022-11-04T08:32:36.590Z,987.79
2022-11-04T08:37:36.549Z,987.50
2022-11-04T08:42:36.356Z,987.18
2022-11-04T08:47:39.344Z,987.06
2022-11-04T08:52:36.235Z,986.87
2022-11-04T08:57:36.297Z,986.97
2022-11-04T09:02:36.046Z,987.23
2022-11-04T09:07:36.051Z,987.06
2022-11-04T09:12:36.032Z,987.31
2022-11-04T09:19:28.580Z,987.56
2022-11-04T09:24:28.386Z,987.71
2022-11-04T09:29:28.363Z,987.76
2022-11-04T09:34:28.160Z,987.85
2022-11-04T09:39:28.191Z,988.02
2022-11-04T09:44:28.091Z,988.04
2022-11-04T09:49:28.132Z,988.01
2022-11-04T09:54:27.934Z,988.03
2022-11-04T09:59:27.903Z,987.98
2022-11-04T10:04:27.772Z,987.94
2022-11-04T10:13:47.012Z,988.01
2022-11-04T12:19:15.150Z,987.99
2022-11-04T12:27:28.855Z,987.95
2022-11-04T12:32:28.787Z,987.93
2022-11-04T12:37:28.816Z,988.02
2022-11-04T12:42:32.796Z,987.94
2022-11-04T12:47:28.403Z,987.80
2022-11-04T12:52:28.287Z,987.83
2022-11-04T12:57:28.331Z,988.00
2022-11-04T13:05:08.202Z,988.03
2022-11-04T13:10:07.962Z,988.11
2022-11-04T13:15:07.995Z,988.11
2022-11-04T13:20:07.918Z,988.15
2022-11-04T13:25:08.863Z,988.14
2022-11-04T13:30:07.648Z,988.21
2022-11-04T13:35:07.619Z,988.26
2022-11-04T13:40:07.553Z,988.25
2022-11-04T13:45:07.495Z,988.30
2022-11-04T13:50:07.450Z,988.33
2022-11-04T13:55:10.362Z,988.44
2022-11-04T14:00:07.600Z,988.57
2022-11-04T14:05:15.231Z,988.62
2022-11-04T14:10:07.279Z,988.63
2022-11-04T14:15:07.127Z,988.61
2022-11-04T14:20:07.139Z,988.63
2022-11-04T14:25:06.922Z,988.72
2022-11-04T14:30:06.894Z,988.76
2022-11-04T14:35:06.853Z,988.69
2022-11-04T14:40:06.712Z,988.66
2022-11-04T14:45:06.796Z,988.70
2022-11-04T14:50:06.594Z,988.73
2022-11-04T14:55:17.317Z,988.82
2022-11-04T15:00:13.965Z,988.94
2022-11-04T15:05:06.686Z,988.98
2022-11-04T15:10:06.536Z,988.99
2022-11-04T15:15:06.347Z,988.89
2022-11-04T15:20:06.215Z,988.93
2022-11-04T15:25:06.312Z,989.02
2022-11-04T15:30:06.092Z,989.16
2022-11-04T15:35:06.033Z,989.23
2022-11-04T15:40:05.932Z,989.30
2022-11-04T15:45:06.090Z,989.32
2022-11-04T15:50:05.835Z,989.37
2022-11-04T15:55:09.012Z,989.45
2022-11-04T16:00:05.931Z,989.46
2022-11-04T16:05:05.742Z,989.44
2022-11-04T16:10:09.708Z,989.49
2022-11-04T16:15:05.519Z,989.61
2022-11-04T16:20:05.412Z,989.67
2022-11-04T16:25:05.481Z,989.78
2022-11-04T16:30:05.533Z,989.88
2022-11-04T16:35:05.377Z,990.00
2022-11-04T16:40:05.139Z,989.98
2022-11-04T16:45:05.246Z,990.02
2022-11-04T16:50:05.622Z,990.03
2022-11-04T16:55:09.217Z,990.08
2022-11-04T17:00:04.912Z,990.07
2022-11-04T17:05:04.902Z,990.05
2022-11-04T17:10:04.796Z,990.02
2022-11-04T17:15:04.881Z,990.03
2022-11-04T17:20:04.632Z,990.00
2022-11-04T17:25:04.590Z,990.15
2022-11-04T17:30:04.484Z,990.04
2022-11-04T17:35:04.505Z,990.17
2022-11-04T17:40:04.375Z,990.15
2022-11-04T17:45:04.341Z,990.22
2022-11-04T17:50:04.276Z,990.29
2022-11-04T17:55:10.052Z,990.24
2022-11-04T18:00:05.102Z,990.30
2022-11-04T18:05:04.293Z,990.40
2022-11-04T18:10:03.996Z,990.46
2022-11-04T18:15:04.067Z,990.45
2022-11-04T18:20:03.976Z,990.49
2022-11-04T18:25:03.867Z,990.58
2022-11-04T18:30:03.718Z,990.59
2022-11-04T18:35:03.664Z,990.66
2022-11-04T18:40:03.603Z,990.73
2022-11-04T18:45:03.702Z,990.74
2022-11-04T18:50:03.455Z,990.71
2022-11-04T18:55:06.421Z,990.73
2022-11-04T19:00:03.400Z,990.79
2022-11-04T19:05:03.250Z,990.84
2022-11-04T19:10:03.175Z,990.87
2022-11-04T19:15:03.233Z,991.03
2022-11-04T19:20:08.364Z,991.12
2022-11-04T19:25:04.083Z,991.16
2022-11-04T19:30:02.903Z,991.25
2022-11-04T19:35:02.880Z,991.38
2022-11-04T19:40:02.807Z,991.40
2022-11-04T19:45:10.538Z,991.58
2022-11-04T19:50:10.135Z,991.65
2022-11-04T19:55:05.615Z,991.74
2022-11-04T20:00:02.639Z,991.76
2022-11-04T20:05:02.513Z,991.80
2022-11-04T20:10:02.440Z,991.85
2022-11-04T20:15:02.443Z,991.93
2022-11-04T20:20:02.302Z,992.07
2022-11-04T20:25:02.287Z,992.09
2022-11-04T20:30:02.206Z,992.18
2022-11-04T20:35:02.116Z,992.25
2022-11-04T20:40:02.091Z,992.30
2022-11-04T20:45:02.076Z,992.38
2022-11-04T20:50:09.761Z,992.40
2022-11-04T20:55:12.535Z,992.47
2022-11-04T21:00:01.726Z,992.53
2022-11-04T21:05:01.724Z,992.47
2022-11-04T21:10:01.590Z,992.50
2022-11-04T21:15:01.651Z,992.57
2022-11-04T21:20:01.530Z,992.62
2022-11-04T21:25:01.638Z,992.59
2022-11-04T21:30:01.448Z,992.69
2022-11-04T21:35:01.473Z,992.65
2022-11-04T21:40:01.206Z,992.69
2022-11-04T21:45:01.372Z,992.69
2022-11-04T21:50:01.093Z,992.72
2022-11-04T21:55:04.044Z,992.73
2022-11-04T22:00:00.998Z,992.76
2022-11-04T22:05:01.078Z,992.76
2022-11-04T22:10:00.807Z,992.75
2022-11-04T22:15:00.793Z,992.87
2022-11-04T22:20:00.716Z,992.91
2022-11-04T22:25:01.123Z,992.91
2022-11-04T22:30:00.560Z,992.88
2022-11-04T22:35:00.632Z,992.92
2022-11-04T22:40:00.441Z,992.90
2022-11-04T22:45:00.427Z,993.04
2022-11-04T22:50:00.278Z,993.09
2022-11-04T22:55:03.301Z,993.14
2022-11-04T23:00:00.424Z,993.18
2022-11-04T23:05:00.149Z,993.23
2022-11-04T23:10:00.056Z,993.23
2022-11-04T23:14:59.992Z,993.28
2022-11-04T23:19:59.887Z,993.29
2022-11-04T23:24:59.881Z,993.29
2022-11-04T23:29:59.785Z,993.38
2022-11-04T23:34:59.806Z,993.48
2022-11-04T23:39:59.766Z,993.49
2022-11-04T23:44:59.678Z,993.55
2022-11-04T23:49:59.563Z,993.62
2022-11-04T23:55:02.523Z,993.65
2022-11-04T23:59:59.434Z,993.69
